Time;durP1;ratioP1;P1;durP2;ratioP2;P2;SDS_P1;SDS_P2;PMS_P1;PMS_P2;Temp;Humidity;BMP_temperature;BMP_pressure;BME280_temperature;BME280_humidity;BME280_pressure;Samples;Min_cycle;Max_cycle;Signal;HPM_P1;HPM_P2
2021/03/25 00:01:39;;;;;;;15.00;8.67;;;2.50;99.90;;;;;;5084176;28;20858;-76
2021/03/25 00:04:05;;;;;;;19.33;8.87;;;2.50;99.90;;;;;;5081573;28;20428;-73
2021/03/25 00:06:32;;;;;;;15.17;7.87;;;2.50;99.90;;;;;;5085439;28;20951;-74
2021/03/25 00:08:58;;;;;;;15.60;9.20;;;2.50;99.90;;;;;;5081501;28;20444;-76
2021/03/25 00:11:23;;;;;;;15.33;8.40;;;2.50;99.90;;;;;;5084551;28;20822;-74
2021/03/25 00:13:49;;;;;;;14.70;7.50;;;2.50;99.90;;;;;;5082475;28;20189;-74
2021/03/25 00:16:15;;;;;;;16.27;8.30;;;2.40;99.90;;;;;;5083675;28;20280;-74
2021/03/25 00:18:42;;;;;;;14.43;7.30;;;2.40;99.90;;;;;;5083605;28;20429;-74
2021/03/25 00:21:10;;;;;;;15.93;9.57;;;2.30;99.90;;;;;;5082289;28;21024;-75
2021/03/25 00:23:36;;;;;;;8.80;7.07;;;2.30;99.90;;;;;;5082982;28;20500;-73
2021/03/25 00:26:02;;;;;;;13.60;8.40;;;2.30;99.90;;;;;;5081595;28;20408;-73
2021/03/25 00:28:27;;;;;;;18.07;7.10;;;2.30;99.90;;;;;;5081460;28;20547;-73
2021/03/25 00:30:53;;;;;;;15.93;7.53;;;2.30;99.90;;;;;;5084174;28;20911;-73
2021/03/25 00:33:20;;;;;;;16.13;8.20;;;2.20;99.90;;;;;;5082214;28;20178;-75
2021/03/25 00:35:46;;;;;;;16.63;7.60;;;2.20;99.90;;;;;;5083185;28;20184;-73
2021/03/25 00:38:13;;;;;;;16.03;8.10;;;2.20;99.90;;;;;;5083128;28;20421;-73
2021/03/25 00:40:39;;;;;;;14.30;8.33;;;2.10;99.90;;;;;;5082177;28;20485;-75
2021/03/25 00:43:06;;;;;;;14.83;7.87;;;2.10;99.90;;;;;;5082457;28;20542;-73
2021/03/25 00:45:42;;;;;;;11.43;7.50;;;2.10;99.90;;;;;;5081341;28;20404;-74
2021/03/25 00:48:08;;;;;;;15.63;8.47;;;2.10;99.90;;;;;;5082259;28;20401;-75
2021/03/25 00:50:41;;;;;;;9.30;7.43;;;2.00;99.90;;;;;;5081326;28;20795;-74
2021/03/25 00:53:09;;;;;;;15.73;7.63;;;2.00;99.90;;;;;;5083097;28;20452;-73
2021/03/25 00:55:35;;;;;;;11.10;6.90;;;2.00;99.90;;;;;;5081633;28;20442;-74
2021/03/25 00:58:00;;;;;;;11.20;7.00;;;1.90;99.90;;;;;;5081287;28;20440;-73
2021/03/25 01:00:31;;;;;;;11.03;6.70;;;1.90;99.90;;;;;;5083446;28;20176;-73
2021/03/25 01:02:56;;;;;;;13.57;8.13;;;1.90;99.90;;;;;;5080354;28;20204;-75
2021/03/25 01:05:23;;;;;;;17.33;8.20;;;1.90;99.90;;;;;;5080343;28;20431;-73
2021/03/25 01:07:49;;;;;;;14.40;7.00;;;1.90;99.90;;;;;;5082472;28;20230;-74
2021/03/25 01:10:41;;;;;;;11.27;7.80;;;1.80;99.90;;;;;;5080713;28;20438;-74
2021/03/25 01:13:22;;;;;;;12.47;8.40;;;1.80;99.90;;;;;;5080769;28;20197;-74
2021/03/25 01:15:47;;;;;;;13.20;7.13;;;1.80;99.90;;;;;;5080729;28;20434;-73
2021/03/25 01:18:13;;;;;;;14.90;7.20;;;1.80;99.90;;;;;;5080481;28;20428;-73
2021/03/25 01:20:41;;;;;;;13.70;7.50;;;1.80;99.90;;;;;;5082569;28;20212;-74
2021/03/25 01:23:08;;;;;;;14.33;7.80;;;1.70;99.90;;;;;;5090332;28;20235;-73
2021/03/25 01:25:35;;;;;;;14.23;7.03;;;1.70;99.90;;;;;;5078205;28;20448;-74
2021/03/25 01:28:02;;;;;;;9.10;6.67;;;1.70;99.90;;;;;;5081632;28;21091;-73
2021/03/25 01:30:30;;;;;;;12.40;6.30;;;1.70;99.90;;;;;;5080606;28;20433;-73
2021/03/25 01:32:56;;;;;;;9.63;6.13;;;1.70;99.90;;;;;;5079139;28;20453;-73
2021/03/25 01:35:23;;;;;;;12.20;6.97;;;1.60;99.90;;;;;;5077619;28;21034;-74
2021/03/25 01:37:49;;;;;;;12.20;7.47;;;1.60;99.90;;;;;;5079765;28;20430;-74
2021/03/25 01:40:30;;;;;;;12.70;7.73;;;1.60;99.90;;;;;;5081372;28;20427;-73
2021/03/25 01:43:16;;;;;;;14.03;7.03;;;1.60;99.90;;;;;;5081599;28;20455;-73
2021/03/25 01:45:58;;;;;;;12.37;7.73;;;1.60;99.90;;;;;;5080117;28;20445;-73
2021/03/25 01:48:28;;;;;;;13.60;7.90;;;1.60;99.90;;;;;;5081007;28;20421;-73
2021/03/25 01:51:00;;;;;;;12.20;7.77;;;1.60;99.90;;;;;;5079487;28;20447;-72
2021/03/25 01:53:52;;;;;;;11.87;8.60;;;1.60;99.90;;;;;;5079045;28;20809;-73
2021/03/25 01:56:45;;;;;;;15.80;8.40;;;1.60;99.90;;;;;;5077326;28;20468;-73
2021/03/25 01:59:38;;;;;;;12.00;7.10;;;1.50;99.90;;;;;;5080960;28;20419;-73
2021/03/25 02:02:15;;;;;;;13.10;7.60;;;1.50;99.90;;;;;;5081754;28;20478;-75
2021/03/25 02:04:59;;;;;;;15.13;8.73;;;1.40;99.90;;;;;;5075453;28;20415;-73
2021/03/25 02:07:57;;;;;;;16.20;8.40;;;1.40;99.90;;;;;;5077144;28;20497;-73
2021/03/25 02:10:35;;;;;;;18.37;7.90;;;1.40;99.90;;;;;;5082592;28;20457;-73
2021/03/25 02:13:12;;;;;;;14.13;9.00;;;1.40;99.90;;;;;;5074783;28;20468;-74
2021/03/25 02:15:57;;;;;;;14.33;8.20;;;1.40;99.90;;;;;;5081352;28;20411;-73
2021/03/25 02:18:45;;;;;;;20.13;9.70;;;1.40;99.90;;;;;;5076497;28;20857;-74
2021/03/25 02:21:44;;;;;;;14.60;8.33;;;1.40;99.90;;;;;;5079488;28;20454;-73
2021/03/25 02:24:14;;;;;;;14.40;8.37;;;1.40;99.90;;;;;;5080843;28;20445;-73
2021/03/25 02:27:00;;;;;;;19.27;8.93;;;1.30;99.90;;;;;;5081798;28;20385;-73
2021/03/25 02:29:46;;;;;;;15.60;9.27;;;1.30;99.90;;;;;;5080209;28;20409;-73
2021/03/25 02:32:37;;;;;;;17.93;9.83;;;1.30;99.90;;;;;;5080052;28;20496;-75
2021/03/25 02:35:19;;;;;;;15.60;8.90;;;1.20;99.90;;;;;;5080735;28;20441;-74
2021/03/25 02:37:48;;;;;;;20.30;9.20;;;1.20;99.90;;;;;;5080811;28;20506;-73
2021/03/25 02:40:19;;;;;;;15.57;9.77;;;1.20;99.90;;;;;;5079225;28;20513;-73
2021/03/25 02:43:01;;;;;;;17.57;9.30;;;1.10;99.90;;;;;;5079179;28;20454;-74
2021/03/25 02:45:31;;;;;;;19.60;11.13;;;1.20;99.90;;;;;;5083189;28;20417;-74
2021/03/25 02:48:11;;;;;;;22.33;11.50;;;1.10;99.90;;;;;;5078890;28;20949;-75
2021/03/25 02:50:51;;;;;;;13.87;9.70;;;1.10;99.90;;;;;;5080764;28;20463;-74
2021/03/25 02:53:27;;;;;;;24.03;10.37;;;1.10;99.90;;;;;;5079426;28;20515;-74
2021/03/25 02:55:56;;;;;;;21.53;9.37;;;1.10;99.90;;;;;;5080885;28;21415;-73
2021/03/25 02:58:24;;;;;;;23.10;10.03;;;1.10;99.90;;;;;;5080029;28;20906;-74
2021/03/25 03:01:00;;;;;;;15.37;8.83;;;1.10;99.90;;;;;;5079707;28;20413;-73
2021/03/25 03:03:34;;;;;;;15.17;9.53;;;1.10;99.90;;;;;;5080461;28;20418;-74
2021/03/25 03:06:01;;;;;;;14.13;9.17;;;1.10;99.90;;;;;;5080966;28;21027;-73
2021/03/25 03:08:48;;;;;;;24.80;10.20;;;1.10;99.90;;;;;;5078907;28;20466;-73
2021/03/25 03:11:22;;;;;;;18.70;10.40;;;1.00;99.90;;;;;;5079172;28;20445;-73
2021/03/25 03:14:00;;;;;;;22.20;11.50;;;1.00;99.90;;;;;;5079864;28;20866;-74
2021/03/25 03:16:32;;;;;;;16.33;10.40;;;1.00;99.90;;;;;;5080989;28;20434;-73
2021/03/25 03:19:06;;;;;;;17.23;10.57;;;1.00;99.90;;;;;;5078246;28;20465;-73
2021/03/25 03:21:43;;;;;;;20.40;11.40;;;1.00;99.90;;;;;;5079536;28;20963;-74
2021/03/25 03:24:10;;;;;;;19.40;9.90;;;1.00;99.90;;;;;;5079292;28;20526;-73
2021/03/25 03:26:44;;;;;;;14.97;9.30;;;1.00;99.90;;;;;;5078151;28;20408;-74
2021/03/25 03:29:10;;;;;;;18.97;10.67;;;1.00;99.90;;;;;;5079662;28;20394;-73
2021/03/25 03:31:53;;;;;;;18.07;10.10;;;1.00;99.90;;;;;;5085458;28;20934;-74
2021/03/25 03:34:24;;;;;;;20.57;10.77;;;1.00;99.90;;;;;;5084315;28;20500;-72
2021/03/25 03:36:53;;;;;;;22.60;11.40;;;1.00;99.90;;;;;;5084484;28;20418;-74
2021/03/25 03:39:23;;;;;;;20.17;11.67;;;1.00;99.90;;;;;;5083418;28;20476;-73
2021/03/25 03:41:56;;;;;;;18.97;10.00;;;0.90;99.90;;;;;;5083899;28;20457;-73
2021/03/25 03:44:26;;;;;;;17.57;10.20;;;0.90;99.90;;;;;;5083117;28;20450;-73
2021/03/25 03:46:53;;;;;;;17.37;10.50;;;0.90;99.90;;;;;;5085498;28;20435;-73
2021/03/25 03:49:32;;;;;;;19.80;10.40;;;0.90;99.90;;;;;;5083420;28;20453;-73
2021/03/25 03:52:04;;;;;;;20.57;10.57;;;0.90;99.90;;;;;;5080429;28;20526;-73
2021/03/25 03:54:30;;;;;;;17.00;9.77;;;0.80;99.90;;;;;;5082357;28;20432;-73
2021/03/25 03:57:14;;;;;;;23.20;9.87;;;0.80;99.90;;;;;;5082498;28;20428;-73
2021/03/25 04:00:02;;;;;;;16.63;9.23;;;0.80;99.90;;;;;;5081912;28;20394;-73
2021/03/25 04:02:40;;;;;;;15.77;10.37;;;0.80;99.90;;;;;;5082048;28;20822;-73
2021/03/25 04:05:30;;;;;;;19.27;10.63;;;0.80;99.90;;;;;;5082487;28;20824;-73
2021/03/25 04:08:18;;;;;;;40.73;10.77;;;0.70;99.90;;;;;;5081546;28;20497;-73
2021/03/25 04:10:54;;;;;;;13.37;9.87;;;0.70;99.90;;;;;;5080832;28;20437;-73
2021/03/25 04:13:26;;;;;;;19.20;9.17;;;0.70;99.90;;;;;;5082902;28;20500;-73
2021/03/25 04:15:54;;;;;;;17.43;10.00;;;0.80;99.90;;;;;;5082512;28;20414;-73
2021/03/25 04:18:47;;;;;;;16.83;10.50;;;0.70;99.90;;;;;;5085822;28;20432;-73
2021/03/25 04:21:35;;;;;;;19.97;11.20;;;0.70;99.90;;;;;;5083042;28;20436;-73
2021/03/25 04:24:07;;;;;;;17.80;10.00;;;0.70;99.90;;;;;;5081546;28;21151;-73
2021/03/25 04:26:38;;;;;;;16.27;9.67;;;0.70;99.90;;;;;;5081681;28;20504;-72
2021/03/25 04:29:13;;;;;;;22.27;10.73;;;0.70;99.90;;;;;;5079736;28;20435;-73
2021/03/25 04:31:38;;;;;;;15.07;10.23;;;0.70;99.90;;;;;;5083144;28;20465;-74
2021/03/25 04:34:04;;;;;;;15.10;9.43;;;0.70;99.90;;;;;;5081519;28;20797;-73
2021/03/25 04:36:37;;;;;;;19.60;10.10;;;0.70;99.90;;;;;;5084961;28;20177;-73
2021/03/25 04:39:05;;;;;;;15.80;9.80;;;0.70;99.90;;;;;;5081425;28;20457;-73
2021/03/25 04:41:33;;;;;;;19.37;9.53;;;0.70;99.90;;;;;;5079122;28;20467;-74
2021/03/25 04:44:01;;;;;;;22.53;11.07;;;0.70;99.90;;;;;;5080959;28;20487;-75
2021/03/25 04:47:01;;;;;;;21.00;10.97;;;0.60;99.90;;;;;;5082928;28;20454;-73
2021/03/25 04:49:38;;;;;;;13.60;9.33;;;0.60;99.90;;;;;;5082215;28;20413;-73
2021/03/25 04:52:08;;;;;;;14.67;10.50;;;0.60;99.90;;;;;;5080645;28;21298;-75
2021/03/25 04:54:39;;;;;;;20.13;11.07;;;0.60;99.90;;;;;;5082811;28;20425;-73
2021/03/25 04:57:16;;;;;;;19.10;9.77;;;0.60;99.90;;;;;;5081925;28;20420;-73
2021/03/25 04:59:42;;;;;;;14.83;10.47;;;0.60;99.90;;;;;;5082863;28;20381;-73
2021/03/25 05:02:10;;;;;;;20.10;10.30;;;0.60;99.90;;;;;;5081973;28;20441;-73
2021/03/25 05:04:41;;;;;;;18.03;10.00;;;0.60;99.90;;;;;;5082351;28;20508;-74
2021/03/25 05:07:07;;;;;;;23.37;11.30;;;0.60;99.90;;;;;;5083003;28;20445;-74
2021/03/25 05:09:35;;;;;;;15.47;9.97;;;0.60;99.90;;;;;;5078107;28;20438;-75
2021/03/25 05:12:02;;;;;;;18.93;10.00;;;0.60;99.90;;;;;;5082830;28;20483;-72
2021/03/25 05:14:28;;;;;;;19.77;10.30;;;0.60;99.90;;;;;;5080910;28;20416;-74
2021/03/25 05:17:06;;;;;;;18.47;10.63;;;0.60;99.90;;;;;;5082444;28;20435;-70
2021/03/25 05:19:47;;;;;;;22.90;12.33;;;0.60;99.90;;;;;;5080540;28;21024;-70
2021/03/25 05:22:21;;;;;;;17.20;9.50;;;0.70;99.90;;;;;;5076406;28;20461;-70
2021/03/25 05:24:55;;;;;;;17.47;10.57;;;0.70;99.90;;;;;;5082244;28;20812;-70
2021/03/25 05:27:28;;;;;;;16.90;10.47;;;0.70;99.90;;;;;;5080142;28;20467;-71
2021/03/25 05:29:56;;;;;;;17.70;10.47;;;0.70;99.90;;;;;;5082963;28;20397;-71
2021/03/25 05:32:26;;;;;;;16.73;10.67;;;0.80;99.90;;;;;;5079775;28;20452;-70
2021/03/25 05:34:54;;;;;;;17.17;10.60;;;0.90;99.90;;;;;;5076353;28;20425;-71
2021/03/25 05:37:21;;;;;;;18.90;10.80;;;0.90;99.90;;;;;;5080608;28;20434;-70
2021/03/25 05:39:46;;;;;;;16.43;10.10;;;1.00;99.90;;;;;;5081696;28;20413;-71
2021/03/25 05:42:42;;;;;;;16.93;9.93;;;1.00;99.90;;;;;;5081053;28;20436;-70
2021/03/25 05:45:26;;;;;;;21.30;10.63;;;1.00;99.90;;;;;;5082407;28;20254;-71
2021/03/25 05:48:04;;;;;;;15.13;10.47;;;1.10;99.90;;;;;;5080385;28;20488;-71
2021/03/25 05:50:52;;;;;;;17.40;10.13;;;1.20;99.90;;;;;;5077402;28;20468;-71
2021/03/25 05:53:40;;;;;;;20.20;10.10;;;1.30;99.90;;;;;;5079162;28;20925;-71
2021/03/25 05:56:44;;;;;;;18.37;10.83;;;1.40;99.90;;;;;;5079985;28;20498;-71
2021/03/25 05:59:14;;;;;;;18.50;10.13;;;1.50;99.90;;;;;;5053134;28;20442;-70
2021/03/25 06:01:52;;;;;;;19.47;11.33;;;1.60;99.90;;;;;;5082041;28;20479;-70
2021/03/25 06:04:36;;;;;;;16.43;10.20;;;1.80;99.90;;;;;;5080607;28;20774;-71
2021/03/25 06:07:15;;;;;;;17.53;10.80;;;2.10;99.90;;;;;;5079480;28;20942;-71
2021/03/25 06:10:09;;;;;;;16.90;10.60;;;2.90;99.90;;;;;;5077394;28;20442;-70
2021/03/25 06:13:04;;;;;;;13.13;9.43;;;4.20;99.90;;;;;;5079350;28;20466;-71
2021/03/25 06:15:55;;;;;;;13.43;9.23;;;5.80;99.90;;;;;;5078895;28;20431;-71
2021/03/25 06:18:56;;;;;;;22.33;9.90;;;6.80;99.90;;;;;;5081112;28;20437;-71
2021/03/25 06:21:32;;;;;;;14.10;8.80;;;7.70;99.90;;;;;;5062012;28;20964;-72
2021/03/25 06:24:29;;;;;;;13.03;8.87;;;8.60;99.90;;;;;;5076722;28;20940;-72
2021/03/25 06:27:19;;;;;;;14.80;8.50;;;9.20;99.90;;;;;;5081337;28;20954;-71
2021/03/25 06:29:57;;;;;;;11.37;9.10;;;9.60;99.90;;;;;;5079789;28;20457;-72
2021/03/25 06:32:29;;;;;;;15.13;10.87;;;10.10;99.90;;;;;;5078998;28;20519;-72
2021/03/25 06:35:05;;;;;;;18.17;10.40;;;10.10;99.90;;;;;;5086850;28;20438;-72
2021/03/25 06:37:35;;;;;;;13.90;9.27;;;10.30;99.90;;;;;;5083764;28;20413;-72
2021/03/25 06:40:06;;;;;;;15.37;9.47;;;10.50;99.90;;;;;;5079257;28;20847;-71
2021/03/25 06:42:36;;;;;;;14.17;10.00;;;11.00;99.90;;;;;;5078816;28;20519;-72
2021/03/25 06:45:21;;;;;;;14.73;9.20;;;11.20;99.90;;;;;;5081405;28;20430;-72
2021/03/25 06:48:13;;;;;;;15.77;10.00;;;11.30;99.90;;;;;;5077461;28;20453;-72
2021/03/25 06:50:42;;;;;;;20.03;12.90;;;11.30;99.90;;;;;;5073855;28;20858;-72
2021/03/25 06:53:31;;;;;;;20.90;12.43;;;11.70;99.90;;;;;;5079429;28;20894;-71
2021/03/25 06:56:02;;;;;;;13.40;10.60;;;12.00;99.90;;;;;;5082893;28;20452;-72
2021/03/25 06:58:32;;;;;;;24.00;19.53;;;12.30;99.90;;;;;;5082599;28;20433;-71
2021/03/25 07:01:04;;;;;;;15.97;10.10;;;12.80;99.90;;;;;;5080051;28;20781;-71
2021/03/25 07:03:31;;;;;;;15.73;11.23;;;13.50;99.90;;;;;;5078781;28;20414;-72
2021/03/25 07:06:01;;;;;;;15.47;11.60;;;13.70;99.90;;;;;;5080367;28;20432;-72
2021/03/25 07:08:28;;;;;;;20.13;11.97;;;14.10;99.90;;;;;;5090540;28;20518;-72
2021/03/25 07:10:58;;;;;;;20.53;12.87;;;13.80;99.90;;;;;;5082588;28;20457;-72
2021/03/25 07:13:39;;;;;;;13.00;11.10;;;13.70;99.90;;;;;;5089399;28;20437;-73
2021/03/25 07:16:07;;;;;;;13.63;9.80;;;13.30;99.90;;;;;;5088381;28;20415;-73
2021/03/25 07:18:57;;;;;;;18.80;10.07;;;13.00;99.90;;;;;;5088185;28;20430;-72
2021/03/25 07:21:32;;;;;;;16.07;10.50;;;12.80;99.90;;;;;;5083850;28;20443;-71
2021/03/25 07:24:00;;;;;;;18.13;9.53;;;12.70;99.90;;;;;;5085638;28;20958;-73
2021/03/25 07:26:35;;;;;;;19.67;9.73;;;12.70;99.90;;;;;;5089397;28;20460;-71
2021/03/25 07:29:16;;;;;;;17.80;9.90;;;12.60;99.90;;;;;;5085231;28;20430;-72
2021/03/25 07:31:55;;;;;;;14.10;9.30;;;12.60;99.90;;;;;;5082256;28;20900;-73
2021/03/25 07:34:34;;;;;;;19.57;10.17;;;12.70;99.90;;;;;;5083540;28;20468;-73
2021/03/25 07:37:01;;;;;;;14.70;9.60;;;12.70;99.90;;;;;;5082282;28;20438;-71
2021/03/25 07:39:31;;;;;;;17.50;10.60;;;12.70;99.90;;;;;;5081421;28;20430;-71
2021/03/25 07:41:58;;;;;;;22.23;10.17;;;12.90;99.90;;;;;;5083922;28;20853;-74
2021/03/25 07:44:24;;;;;;;20.80;10.40;;;13.20;99.90;;;;;;5081840;28;20442;-71
2021/03/25 07:46:54;;;;;;;20.57;11.33;;;13.00;99.90;;;;;;5082102;28;20430;-73
2021/03/25 07:49:23;;;;;;;14.57;10.10;;;13.00;99.90;;;;;;5079115;28;20212;-71
2021/03/25 07:52:04;;;;;;;16.67;10.57;;;13.10;99.90;;;;;;5082433;28;20470;-71
2021/03/25 07:54:42;;;;;;;19.03;10.20;;;13.20;99.90;;;;;;5080833;28;20495;-73
2021/03/25 07:57:15;;;;;;;19.60;11.23;;;13.40;99.90;;;;;;5085156;28;20429;-72
2021/03/25 07:59:51;;;;;;;21.27;11.80;;;13.40;99.90;;;;;;5082378;28;20451;-73
2021/03/25 08:02:22;;;;;;;17.30;11.10;;;13.50;99.90;;;;;;5085427;28;20814;-71
2021/03/25 08:04:48;;;;;;;21.17;10.93;;;13.50;99.90;;;;;;5083279;28;20780;-71
2021/03/25 08:07:13;;;;;;;15.73;11.30;;;13.50;99.90;;;;;;5086456;28;20464;-71
2021/03/25 08:09:42;;;;;;;14.27;9.70;;;13.90;99.90;;;;;;5083480;28;20184;-72
2021/03/25 08:12:17;;;;;;;15.27;10.63;;;14.10;99.90;;;;;;5084963;28;20294;-70
2021/03/25 08:14:43;;;;;;;15.67;9.40;;;14.20;99.90;;;;;;5081529;28;20410;-71
2021/03/25 08:17:12;;;;;;;17.00;10.00;;;14.50;99.90;;;;;;5083147;28;20525;-71
2021/03/25 08:20:07;;;;;;;23.90;9.77;;;14.70;99.90;;;;;;5082047;28;20402;-71
2021/03/25 08:22:42;;;;;;;17.30;10.57;;;14.80;99.90;;;;;;5081210;28;20435;-69
2021/03/25 08:25:42;;;;;;;12.80;10.97;;;14.80;99.90;;;;;;5082044;28;20480;-71
2021/03/25 08:28:35;;;;;;;18.67;9.93;;;15.00;99.90;;;;;;5077755;28;20434;-72
2021/03/25 08:31:16;;;;;;;25.20;11.40;;;14.80;99.90;;;;;;5081167;28;20455;-71
2021/03/25 08:34:00;;;;;;;16.60;10.53;;;14.50;99.90;;;;;;5082141;28;20456;-71
2021/03/25 08:36:43;;;;;;;21.57;10.87;;;14.60;99.90;;;;;;5081804;28;20438;-71
2021/03/25 08:39:36;;;;;;;18.60;9.50;;;14.70;99.90;;;;;;5081850;28;20435;-72
2021/03/25 08:42:20;;;;;;;22.03;10.20;;;14.80;99.90;;;;;;5080892;28;20449;-70
2021/03/25 08:45:20;;;;;;;11.77;9.93;;;14.90;99.90;;;;;;5082864;28;20411;-72
2021/03/25 08:48:03;;;;;;;12.30;9.90;;;14.70;99.90;;;;;;5048570;28;20476;-72
2021/03/25 08:50:39;;;;;;;26.93;12.13;;;14.90;99.90;;;;;;5081190;28;20436;-72
2021/03/25 08:53:31;;;;;;;14.20;9.60;;;15.30;99.90;;;;;;5080742;28;20521;-71
2021/03/25 08:56:01;;;;;;;21.10;10.97;;;15.60;99.90;;;;;;5043182;28;20946;-71
2021/03/25 08:58:34;;;;;;;20.53;11.00;;;15.80;99.90;;;;;;5081688;28;20416;-72
2021/03/25 09:01:08;;;;;;;12.43;9.00;;;16.00;99.90;;;;;;5079347;28;20905;-72
2021/03/25 09:03:48;;;;;;;19.10;10.37;;;16.50;99.90;;;;;;5079427;28;20509;-73
2021/03/25 09:06:29;;;;;;;19.13;9.63;;;16.70;99.90;;;;;;5082561;28;20566;-71
2021/03/25 09:09:16;;;;;;;18.00;10.60;;;16.70;99.90;;;;;;5083242;28;20509;-71
2021/03/25 09:11:42;;;;;;;13.97;9.90;;;16.90;99.90;;;;;;5081516;28;20499;-72
2021/03/25 09:14:29;;;;;;;23.03;10.60;;;17.00;99.90;;;;;;5083226;28;20425;-71
2021/03/25 09:17:06;;;;;;;16.53;9.80;;;17.20;99.90;;;;;;5083637;28;20414;-71
2021/03/25 09:19:39;;;;;;;14.27;9.37;;;17.20;99.90;;;;;;5080572;28;20423;-71
2021/03/25 09:22:05;;;;;;;16.33;9.67;;;17.50;99.90;;;;;;5080234;28;20541;-71
2021/03/25 09:24:31;;;;;;;10.67;9.27;;;17.60;99.90;;;;;;5084399;28;20434;-73
2021/03/25 09:27:03;;;;;;;18.87;8.90;;;17.50;99.90;;;;;;5090947;28;20418;-72
2021/03/25 09:29:32;;;;;;;18.83;10.73;;;17.60;99.90;;;;;;5083459;28;20285;-71
2021/03/25 09:31:58;;;;;;;20.60;10.40;;;17.70;99.90;;;;;;5090399;28;20508;-72
2021/03/25 09:34:23;;;;;;;25.10;9.60;;;17.90;99.90;;;;;;5085045;28;20851;-71
2021/03/25 09:37:04;;;;;;;13.30;8.47;;;17.90;99.90;;;;;;5088813;28;20199;-71
2021/03/25 09:39:34;;;;;;;20.63;9.60;;;18.00;99.90;;;;;;5083491;28;20406;-72
2021/03/25 09:42:15;;;;;;;18.80;9.50;;;17.80;99.90;;;;;;5079815;28;20474;-71
2021/03/25 09:44:42;;;;;;;12.73;9.57;;;18.10;99.90;;;;;;5080933;28;20419;-72
2021/03/25 09:47:18;;;;;;;14.43;9.33;;;18.20;99.90;;;;;;5082755;28;20461;-71
2021/03/25 09:50:02;;;;;;;20.43;8.73;;;18.20;99.90;;;;;;5081138;28;20422;-72
2021/03/25 09:52:28;;;;;;;14.73;9.40;;;18.30;99.90;;;;;;5079643;28;20527;-72
2021/03/25 09:54:56;;;;;;;21.97;9.80;;;17.70;99.90;;;;;;5082268;28;20414;-72
2021/03/25 09:57:31;;;;;;;13.73;9.77;;;18.00;99.90;;;;;;5080748;28;20859;-72
2021/03/25 10:00:07;;;;;;;18.50;9.83;;;18.50;99.90;;;;;;5082662;28;21112;-70
2021/03/25 10:02:45;;;;;;;18.63;9.23;;;18.70;99.90;;;;;;5079482;28;20446;-71
2021/03/25 10:05:20;;;;;;;17.83;10.00;;;19.00;99.90;;;;;;5080623;28;20429;-70
2021/03/25 10:07:47;;;;;;;18.13;9.10;;;19.10;99.90;;;;;;5081275;28;20788;-71
2021/03/25 10:10:34;;;;;;;17.27;9.63;;;19.40;99.90;;;;;;5080898;28;20427;-71
2021/03/25 10:13:06;;;;;;;16.57;8.90;;;19.60;99.90;;;;;;5079022;28;20891;-71
2021/03/25 10:15:41;;;;;;;16.20;8.37;;;19.60;99.90;;;;;;5082167;28;20520;-71
2021/03/25 10:18:32;;;;;;;15.40;8.83;;;19.50;99.90;;;;;;5079633;28;20464;-71
2021/03/25 10:21:01;;;;;;;13.93;7.60;;;19.90;99.90;;;;;;5078069;28;20422;-72
2021/03/25 10:23:28;;;;;;;14.50;9.93;;;20.30;99.90;;;;;;5082400;28;20860;-72
2021/03/25 10:26:09;;;;;;;14.10;8.10;;;20.50;99.90;;;;;;5079994;28;20403;-71
2021/03/25 10:28:49;;;;;;;12.63;7.33;;;21.20;99.90;;;;;;5079331;28;20413;-72
2021/03/25 10:31:20;;;;;;;9.00;7.70;;;20.90;98.50;;;;;;5077148;28;20465;-71
2021/03/25 10:33:48;;;;;;;10.80;7.50;;;20.50;99.60;;;;;;5080419;28;20421;-71
2021/03/25 10:36:26;;;;;;;11.53;7.80;;;20.50;99.90;;;;;;5081335;28;20433;-71
2021/03/25 10:39:01;;;;;;;14.90;7.17;;;20.70;99.90;;;;;;5081187;28;20429;-72
2021/03/25 10:41:38;;;;;;;16.10;7.53;;;20.70;98.70;;;;;;5079126;28;20455;-73
2021/03/25 10:44:18;;;;;;;15.63;6.73;;;21.30;99.40;;;;;;5078700;28;20425;-72
2021/03/25 10:46:44;;;;;;;16.07;7.40;;;21.10;98.60;;;;;;5080945;28;20506;-71
2021/03/25 10:49:18;;;;;;;9.77;6.67;;;21.40;98.40;;;;;;5083959;28;20442;-70
2021/03/25 10:51:46;;;;;;;10.90;6.87;;;21.40;96.90;;;;;;5090147;28;20818;-71
2021/03/25 10:54:37;;;;;;;10.83;7.10;;;21.30;97.40;;;;;;5081124;28;20426;-72
2021/03/25 10:57:17;;;;;;;12.03;7.10;;;20.90;96.70;;;;;;5078982;28;20419;-71
2021/03/25 11:00:00;;;;;;;11.77;7.20;;;20.90;96.90;;;;;;5079998;28;20900;-72
2021/03/25 11:02:28;;;;;;;11.17;7.37;;;21.10;96.80;;;;;;5079205;28;20439;-71
2021/03/25 11:05:08;;;;;;;14.00;8.03;;;21.30;96.70;;;;;;5081321;28;20423;-71
2021/03/25 11:08:02;;;;;;;16.20;7.60;;;21.20;96.00;;;;;;5078950;28;20760;-71
2021/03/25 11:10:32;;;;;;;10.40;7.17;;;21.50;95.60;;;;;;5077456;28;20435;-72
2021/03/25 11:13:02;;;;;;;14.73;7.70;;;21.80;96.50;;;;;;5080437;28;20532;-72
2021/03/25 11:15:30;;;;;;;12.77;7.20;;;21.80;96.00;;;;;;5082514;28;20915;-71
2021/03/25 11:17:56;;;;;;;11.83;7.80;;;21.70;95.20;;;;;;5078988;28;20426;-71
2021/03/25 11:20:25;;;;;;;16.10;7.30;;;21.50;95.20;;;;;;5078734;28;20434;-71
2021/03/25 11:22:54;;;;;;;9.50;6.97;;;21.20;96.00;;;;;;5080633;28;20208;-72
2021/03/25 11:25:30;;;;;;;6.70;5.70;;;21.30;97.20;;;;;;5075647;28;20434;-71
2021/03/25 11:28:07;;;;;;;8.37;5.90;;;20.80;96.30;;;;;;5077053;28;20927;-70
2021/03/25 11:30:48;;;;;;;11.50;9.20;;;20.90;96.30;;;;;;5074748;28;20492;-71
2021/03/25 11:33:31;;;;;;;13.20;9.03;;;20.90;96.20;;;;;;5079574;28;20537;-72
2021/03/25 11:36:00;;;;;;;15.33;8.07;;;20.90;96.70;;;;;;5078557;28;20411;-70
2021/03/25 11:38:25;;;;;;;15.60;9.20;;;21.00;96.30;;;;;;5081463;28;20446;-73
2021/03/25 11:40:58;;;;;;;12.63;8.50;;;21.00;96.00;;;;;;5079580;28;20440;-71
2021/03/25 11:43:44;;;;;;;12.43;8.37;;;20.70;96.70;;;;;;5081346;28;20791;-71
2021/03/25 11:46:22;;;;;;;14.97;7.77;;;20.90;97.10;;;;;;5079371;28;20438;-71
2021/03/25 11:49:01;;;;;;;11.53;7.27;;;20.90;96.20;;;;;;5079979;28;20406;-72
2021/03/25 11:51:28;;;;;;;15.30;7.50;;;21.20;97.30;;;;;;5088687;28;20541;-72
2021/03/25 11:53:56;;;;;;;9.27;7.67;;;21.40;97.40;;;;;;5087506;27;20418;-71
2021/03/25 11:56:32;;;;;;;16.17;8.40;;;21.40;95.90;;;;;;5085498;28;20490;-71
2021/03/25 11:59:13;;;;;;;11.20;7.47;;;21.30;97.20;;;;;;5087919;28;21019;-74
2021/03/25 12:01:41;;;;;;;9.60;7.03;;;20.50;97.30;;;;;;5082527;28;20830;-72
2021/03/25 12:04:27;;;;;;;10.37;6.37;;;20.20;98.00;;;;;;5084002;28;20463;-71
2021/03/25 12:07:15;;;;;;;17.87;7.47;;;20.10;99.00;;;;;;5084411;28;20501;-70
2021/03/25 12:10:04;;;;;;;12.53;8.20;;;20.40;98.90;;;;;;5082897;28;20994;-71
2021/03/25 12:12:30;;;;;;;15.33;8.80;;;20.20;98.20;;;;;;5081645;28;20498;-70
2021/03/25 12:14:56;;;;;;;11.53;8.30;;;19.70;98.00;;;;;;5084498;28;20410;-71
2021/03/25 12:17:22;;;;;;;15.00;8.20;;;19.40;99.20;;;;;;5082707;28;20414;-71
2021/03/25 12:19:48;;;;;;;12.80;8.23;;;19.50;98.60;;;;;;5083363;28;20532;-70
2021/03/25 12:22:22;;;;;;;17.53;8.40;;;19.60;98.30;;;;;;5083771;28;20929;-70
2021/03/25 12:24:48;;;;;;;13.60;6.90;;;19.90;98.20;;;;;;5083484;28;20188;-71
2021/03/25 12:27:19;;;;;;;9.87;7.90;;;19.90;97.10;;;;;;5083613;28;20788;-71
2021/03/25 12:29:45;;;;;;;11.50;7.20;;;19.60;98.10;;;;;;5082670;28;20176;-71
2021/03/25 12:32:13;;;;;;;12.50;7.47;;;19.70;98.40;;;;;;5083735;28;20458;-71
2021/03/25 12:34:38;;;;;;;13.00;7.73;;;19.30;98.50;;;;;;5081983;28;20477;-71
2021/03/25 12:37:04;;;;;;;13.90;7.80;;;19.10;98.90;;;;;;5084836;28;20840;-71
2021/03/25 12:39:30;;;;;;;11.43;7.87;;;19.20;99.30;;;;;;5081136;28;20176;-69
2021/03/25 12:41:57;;;;;;;12.73;7.10;;;19.20;98.80;;;;;;5083980;28;20257;-70
2021/03/25 12:44:23;;;;;;;10.00;6.97;;;19.10;99.30;;;;;;5081980;28;20258;-71
2021/03/25 12:46:48;;;;;;;14.37;7.87;;;19.20;98.70;;;;;;5082926;28;20509;-71
2021/03/25 12:49:14;;;;;;;8.10;6.17;;;18.90;98.60;;;;;;5082991;28;20184;-70
2021/03/25 12:51:39;;;;;;;9.77;6.30;;;18.70;98.40;;;;;;5081688;28;20262;-71
2021/03/25 12:54:05;;;;;;;12.00;8.17;;;18.50;98.60;;;;;;5084005;28;20187;-71
2021/03/25 12:56:34;;;;;;;11.83;6.80;;;18.30;99.10;;;;;;5081149;28;20173;-71
2021/03/25 12:59:09;;;;;;;13.23;7.03;;;18.30;99.20;;;;;;5084044;28;20664;-69
2021/03/25 13:01:35;;;;;;;12.00;7.43;;;18.20;99.00;;;;;;5080890;28;20435;-70
2021/03/25 13:04:01;;;;;;;10.90;6.60;;;18.10;99.80;;;;;;5083680;28;20445;-72
2021/03/25 13:06:26;;;;;;;9.60;7.07;;;18.20;99.60;;;;;;5082164;28;20599;-73
2021/03/25 13:08:53;;;;;;;12.30;6.83;;;18.20;99.90;;;;;;5083114;28;20419;-71
2021/03/25 13:11:23;;;;;;;14.10;7.20;;;18.10;99.40;;;;;;5082190;28;20291;-71
2021/03/25 13:13:49;;;;;;;10.77;7.20;;;18.10;99.50;;;;;;5082210;28;20758;-72
2021/03/25 13:16:15;;;;;;;19.17;7.47;;;18.30;99.90;;;;;;5082809;28;20422;-71